sensor_id;sensor_type;location;lat;lon;timestamp;P1;durP1;ratioP1;P2;durP2;ratioP2
24301;SDS011;12421;49.732;20.078;2023-01-24T00:07:05;29.90;;;17.60;;
24301;SDS011;12421;49.732;20.078;2023-01-24T00:17:10;26.00;;;15.60;;
24301;SDS011;12421;49.732;20.078;2023-01-24T00:27:24;27.00;;;16.10;;
24301;SDS011;12421;49.732;20.078;2023-01-24T00:37:51;32.80;;;18.80;;
24301;SDS011;12421;49.732;20.078;2023-01-24T00:47:56;30.30;;;17.40;;
24301;SDS011;12421;49.732;20.078;2023-01-24T00:58:00;27.00;;;16.40;;
24301;SDS011;12421;49.732;20.078;2023-01-24T01:08:04;30.60;;;18.60;;
24301;SDS011;12421;49.732;20.078;2023-01-24T01:18:09;26.50;;;15.20;;
24301;SDS011;12421;49.732;20.078;2023-01-24T01:28:16;21.40;;;12.40;;
24301;SDS011;12421;49.732;20.078;2023-01-24T01:38:26;24.00;;;12.70;;
24301;SDS011;12421;49.732;20.078;2023-01-24T01:48:39;26.40;;;14.70;;
24301;SDS011;12421;49.732;20.078;2023-01-24T01:58:57;22.50;;;13.00;;
24301;SDS011;12421;49.732;20.078;2023-01-24T02:09:05;23.20;;;13.80;;
24301;SDS011;12421;49.732;20.078;2023-01-24T02:19:16;23.80;;;13.50;;
24301;SDS011;12421;49.732;20.078;2023-01-24T02:29:47;19.30;;;12.60;;
24301;SDS011;12421;49.732;20.078;2023-01-24T02:40:07;18.50;;;10.80;;
24301;SDS011;12421;49.732;20.078;2023-01-24T02:50:17;17.40;;;10.40;;
24301;SDS011;12421;49.732;20.078;2023-01-24T03:00:23;18.10;;;11.90;;
24301;SDS011;12421;49.732;20.078;2023-01-24T03:10:32;21.30;;;12.20;;
24301;SDS011;12421;49.732;20.078;2023-01-24T03:20:41;20.70;;;13.20;;
24301;SDS011;12421;49.732;20.078;2023-01-24T03:31:05;19.70;;;12.70;;
24301;SDS011;12421;49.732;20.078;2023-01-24T03:41:32;16.10;;;10.30;;
24301;SDS011;12421;49.732;20.078;2023-01-24T03:51:47;16.70;;;10.60;;
24301;SDS011;12421;49.732;20.078;2023-01-24T04:02:14;12.00;;;7.90;;
24301;SDS011;12421;49.732;20.078;2023-01-24T04:12:21;12.30;;;7.90;;
24301;SDS011;12421;49.732;20.078;2023-01-24T04:22:26;11.90;;;7.90;;
24301;SDS011;12421;49.732;20.078;2023-01-24T04:32:32;10.30;;;6.70;;
24301;SDS011;12421;49.732;20.078;2023-01-24T04:42:41;13.10;;;8.00;;
24301;SDS011;12421;49.732;20.078;2023-01-24T04:52:46;11.80;;;7.40;;
24301;SDS011;12421;49.732;20.078;2023-01-24T05:02:50;12.20;;;6.90;;
24301;SDS011;12421;49.732;20.078;2023-01-24T05:12:58;10.90;;;6.50;;
24301;SDS011;12421;49.732;20.078;2023-01-24T05:23:03;9.80;;;6.70;;
24301;SDS011;12421;49.732;20.078;2023-01-24T05:33:11;9.80;;;7.10;;
24301;SDS011;12421;49.732;20.078;2023-01-24T05:43:16;11.60;;;7.40;;
24301;SDS011;12421;49.732;20.078;2023-01-24T05:53:20;11.40;;;7.50;;
24301;SDS011;12421;49.732;20.078;2023-01-24T06:03:27;11.70;;;7.60;;
24301;SDS011;12421;49.732;20.078;2023-01-24T06:13:54;9.90;;;6.80;;
24301;SDS011;12421;49.732;20.078;2023-01-24T06:24:01;12.20;;;7.60;;
24301;SDS011;12421;49.732;20.078;2023-01-24T06:44:37;14.10;;;8.60;;
24301;SDS011;12421;49.732;20.078;2023-01-24T06:54:41;13.40;;;8.30;;
24301;SDS011;12421;49.732;20.078;2023-01-24T07:04:45;16.40;;;9.40;;
24301;SDS011;12421;49.732;20.078;2023-01-24T07:15:00;12.50;;;8.20;;
24301;SDS011;12421;49.732;20.078;2023-01-24T07:25:05;25.10;;;12.40;;
24301;SDS011;12421;49.732;20.078;2023-01-24T07:35:16;13.80;;;8.50;;
24301;SDS011;12421;49.732;20.078;2023-01-24T07:45:29;10.70;;;7.70;;
24301;SDS011;12421;49.732;20.078;2023-01-24T07:55:58;14.00;;;8.10;;
24301;SDS011;12421;49.732;20.078;2023-01-24T08:06:23;13.60;;;8.40;;
24301;SDS011;12421;49.732;20.078;2023-01-24T08:16:27;11.60;;;8.40;;
24301;SDS011;12421;49.732;20.078;2023-01-24T08:26:31;12.50;;;8.00;;
24301;SDS011;12421;49.732;20.078;2023-01-24T08:36:41;11.10;;;7.70;;
24301;SDS011;12421;49.732;20.078;2023-01-24T08:46:47;10.70;;;7.40;;
24301;SDS011;12421;49.732;20.078;2023-01-24T08:56:54;7.40;;;5.60;;
24301;SDS011;12421;49.732;20.078;2023-01-24T09:06:58;12.00;;;7.70;;
24301;SDS011;12421;49.732;20.078;2023-01-24T09:17:30;12.40;;;8.80;;
24301;SDS011;12421;49.732;20.078;2023-01-24T09:27:47;11.90;;;8.00;;
24301;SDS011;12421;49.732;20.078;2023-01-24T09:38:10;17.70;;;7.40;;
24301;SDS011;12421;49.732;20.078;2023-01-24T09:48:26;11.20;;;8.20;;
24301;SDS011;12421;49.732;20.078;2023-01-24T09:58:35;11.90;;;7.60;;
24301;SDS011;12421;49.732;20.078;2023-01-24T10:09:12;13.10;;;8.80;;
24301;SDS011;12421;49.732;20.078;2023-01-24T10:29:31;17.30;;;10.80;;
24301;SDS011;12421;49.732;20.078;2023-01-24T10:39:42;16.10;;;10.10;;
24301;SDS011;12421;49.732;20.078;2023-01-24T10:49:50;14.40;;;10.00;;
24301;SDS011;12421;49.732;20.078;2023-01-24T11:00:05;16.00;;;9.80;;
24301;SDS011;12421;49.732;20.078;2023-01-24T11:10:25;13.80;;;8.80;;
24301;SDS011;12421;49.732;20.078;2023-01-24T11:20:32;15.30;;;9.90;;
24301;SDS011;12421;49.732;20.078;2023-01-24T11:30:49;15.50;;;10.30;;
24301;SDS011;12421;49.732;20.078;2023-01-24T11:40:58;14.30;;;8.70;;
24301;SDS011;12421;49.732;20.078;2023-01-24T12:02:01;13.30;;;8.10;;
24301;SDS011;12421;49.732;20.078;2023-01-24T12:12:20;11.90;;;7.60;;
24301;SDS011;12421;49.732;20.078;2023-01-24T12:22:27;9.70;;;6.40;;
24301;SDS011;12421;49.732;20.078;2023-01-24T12:32:52;9.40;;;6.80;;
24301;SDS011;12421;49.732;20.078;2023-01-24T12:43:13;18.30;;;11.20;;
24301;SDS011;12421;49.732;20.078;2023-01-24T12:53:41;12.20;;;7.90;;
24301;SDS011;12421;49.732;20.078;2023-01-24T13:14:42;14.00;;;8.40;;
24301;SDS011;12421;49.732;20.078;2023-01-24T13:25:13;18.50;;;10.60;;
24301;SDS011;12421;49.732;20.078;2023-01-24T13:36:19;13.30;;;9.30;;
24301;SDS011;12421;49.732;20.078;2023-01-24T13:57:29;14.60;;;10.00;;
24301;SDS011;12421;49.732;20.078;2023-01-24T14:07:39;16.10;;;10.20;;
24301;SDS011;12421;49.732;20.078;2023-01-24T14:17:48;21.20;;;11.70;;
24301;SDS011;12421;49.732;20.078;2023-01-24T14:28:02;12.20;;;8.10;;
24301;SDS011;12421;49.732;20.078;2023-01-24T14:38:22;16.50;;;9.10;;
24301;SDS011;12421;49.732;20.078;2023-01-24T14:48:26;14.80;;;9.00;;
24301;SDS011;12421;49.732;20.078;2023-01-24T15:10:20;20.00;;;11.30;;
24301;SDS011;12421;49.732;20.078;2023-01-24T15:20:46;18.90;;;12.10;;
24301;SDS011;12421;49.732;20.078;2023-01-24T15:30:54;19.40;;;11.60;;
24301;SDS011;12421;49.732;20.078;2023-01-24T15:51:19;16.80;;;10.50;;
24301;SDS011;12421;49.732;20.078;2023-01-24T16:01:42;16.10;;;10.20;;
24301;SDS011;12421;49.732;20.078;2023-01-24T16:11:47;17.60;;;10.70;;
24301;SDS011;12421;49.732;20.078;2023-01-24T16:21:52;18.80;;;11.20;;
24301;SDS011;12421;49.732;20.078;2023-01-24T16:31:56;23.00;;;13.30;;
24301;SDS011;12421;49.732;20.078;2023-01-24T16:42:02;17.60;;;10.80;;
24301;SDS011;12421;49.732;20.078;2023-01-24T16:52:07;13.50;;;8.50;;
24301;SDS011;12421;49.732;20.078;2023-01-24T17:02:22;18.90;;;9.50;;
24301;SDS011;12421;49.732;20.078;2023-01-24T17:12:56;21.50;;;11.80;;
24301;SDS011;12421;49.732;20.078;2023-01-24T17:23:08;26.60;;;13.40;;
24301;SDS011;12421;49.732;20.078;2023-01-24T17:34:00;15.90;;;10.40;;
24301;SDS011;12421;49.732;20.078;2023-01-24T17:43:58;14.90;;;8.90;;
24301;SDS011;12421;49.732;20.078;2023-01-24T17:54:04;13.30;;;7.90;;
24301;SDS011;12421;49.732;20.078;2023-01-24T18:04:22;22.90;;;14.70;;
24301;SDS011;12421;49.732;20.078;2023-01-24T18:14:32;16.90;;;9.90;;
24301;SDS011;12421;49.732;20.078;2023-01-24T18:24:47;20.00;;;12.90;;
24301;SDS011;12421;49.732;20.078;2023-01-24T18:34:53;20.40;;;11.30;;
24301;SDS011;12421;49.732;20.078;2023-01-24T18:44:59;17.70;;;11.60;;
24301;SDS011;12421;49.732;20.078;2023-01-24T18:55:05;28.10;;;17.50;;
24301;SDS011;12421;49.732;20.078;2023-01-24T19:05:15;38.20;;;19.50;;
24301;SDS011;12421;49.732;20.078;2023-01-24T19:15:21;25.80;;;15.20;;
24301;SDS011;12421;49.732;20.078;2023-01-24T19:25:27;31.70;;;16.70;;
24301;SDS011;12421;49.732;20.078;2023-01-24T19:36:02;24.20;;;14.10;;
24301;SDS011;12421;49.732;20.078;2023-01-24T19:46:24;19.90;;;11.00;;
24301;SDS011;12421;49.732;20.078;2023-01-24T19:56:31;15.30;;;9.00;;
24301;SDS011;12421;49.732;20.078;2023-01-24T20:06:40;17.50;;;10.70;;
24301;SDS011;12421;49.732;20.078;2023-01-24T20:16:50;22.60;;;12.50;;
24301;SDS011;12421;49.732;20.078;2023-01-24T20:26:56;13.50;;;8.70;;
24301;SDS011;12421;49.732;20.078;2023-01-24T20:37:12;13.60;;;8.00;;
24301;SDS011;12421;49.732;20.078;2023-01-24T20:47:21;13.40;;;7.90;;
24301;SDS011;12421;49.732;20.078;2023-01-24T20:57:31;13.50;;;8.40;;
24301;SDS011;12421;49.732;20.078;2023-01-24T21:07:40;13.40;;;7.40;;
24301;SDS011;12421;49.732;20.078;2023-01-24T21:17:54;14.40;;;10.10;;
24301;SDS011;12421;49.732;20.078;2023-01-24T21:28:11;18.30;;;11.10;;
24301;SDS011;12421;49.732;20.078;2023-01-24T21:38:43;16.00;;;9.90;;
24301;SDS011;12421;49.732;20.078;2023-01-24T21:48:46;14.20;;;9.60;;
24301;SDS011;12421;49.732;20.078;2023-01-24T21:59:09;20.20;;;12.10;;
24301;SDS011;12421;49.732;20.078;2023-01-24T22:09:17;15.10;;;9.40;;
24301;SDS011;12421;49.732;20.078;2023-01-24T22:19:26;17.00;;;11.60;;
24301;SDS011;12421;49.732;20.078;2023-01-24T22:29:32;19.60;;;11.30;;
24301;SDS011;12421;49.732;20.078;2023-01-24T22:39:37;16.20;;;10.00;;
24301;SDS011;12421;49.732;20.078;2023-01-24T22:49:41;14.90;;;9.00;;
24301;SDS011;12421;49.732;20.078;2023-01-24T22:59:52;11.50;;;8.30;;
24301;SDS011;12421;49.732;20.078;2023-01-24T23:09:57;14.80;;;8.70;;
24301;SDS011;12421;49.732;20.078;2023-01-24T23:20:01;12.20;;;7.70;;
24301;SDS011;12421;49.732;20.078;2023-01-24T23:30:31;13.20;;;8.40;;
24301;SDS011;12421;49.732;20.078;2023-01-24T23:40:41;9.50;;;6.60;;
24301;SDS011;12421;49.732;20.078;2023-01-24T23:51:14;11.30;;;7.20;;
